sensor_id;sensor_type;location;lat;lon;timestamp;temperature;humidity
66835;HTU21D;53743;51.100;5.874;2022-07-30T00:00:25;20.35;60.35
66835;HTU21D;53743;51.100;5.874;2022-07-30T00:01:25;20.34;60.48
66835;HTU21D;53743;51.100;5.874;2022-07-30T00:02:26;20.32;60.73
66835;HTU21D;53743;51.100;5.874;2022-07-30T00:03:26;20.28;60.58
66835;HTU21D;53743;51.100;5.874;2022-07-30T00:04:27;20.30;60.74
66835;HTU21D;53743;51.100;5.874;2022-07-30T00:05:28;20.26;60.74
66835;HTU21D;53743;51.100;5.874;2022-07-30T00:06:29;20.27;60.96
66835;HTU21D;53743;51.100;5.874;2022-07-30T00:07:29;20.26;60.98
66835;HTU21D;53743;51.100;5.874;2022-07-30T00:08:30;20.24;61.05
66835;HTU21D;53743;51.100;5.874;2022-07-30T00:09:31;20.21;61.10
66835;HTU21D;53743;51.100;5.874;2022-07-30T00:10:31;20.18;61.24
66835;HTU21D;53743;51.100;5.874;2022-07-30T00:11:32;20.14;61.34
66835;HTU21D;53743;51.100;5.874;2022-07-30T00:12:33;20.14;61.34
66835;HTU21D;53743;51.100;5.874;2022-07-30T00:13:34;20.14;61.46
66835;HTU21D;53743;51.100;5.874;2022-07-30T00:14:35;20.09;61.53
66835;HTU21D;53743;51.100;5.874;2022-07-30T00:15:36;20.06;61.70
66835;HTU21D;53743;51.100;5.874;2022-07-30T00:16:37;20.06;61.83
66835;HTU21D;53743;51.100;5.874;2022-07-30T00:17:38;20.07;61.97
66835;HTU21D;53743;51.100;5.874;2022-07-30T00:18:38;20.03;61.87
66835;HTU21D;53743;51.100;5.874;2022-07-30T00:19:39;20.01;62.04
66835;HTU21D;53743;51.100;5.874;2022-07-30T00:20:40;19.99;62.34
66835;HTU21D;53743;51.100;5.874;2022-07-30T00:21:40;19.94;62.39
66835;HTU21D;53743;51.100;5.874;2022-07-30T00:22:41;19.92;62.46
66835;HTU21D;53743;51.100;5.874;2022-07-30T00:23:42;0.00;62.75
66835;HTU21D;53743;51.100;5.874;2022-07-30T00:24:42;19.88;62.73
66835;HTU21D;53743;51.100;5.874;2022-07-30T00:25:43;19.89;62.85
66835;HTU21D;53743;51.100;5.874;2022-07-30T00:26:44;19.86;63.10
66835;HTU21D;53743;51.100;5.874;2022-07-30T00:27:44;19.86;63.34
66835;HTU21D;53743;51.100;5.874;2022-07-30T00:28:45;19.84;63.30
66835;HTU21D;53743;51.100;5.874;2022-07-30T00:29:46;19.80;63.32
66835;HTU21D;53743;51.100;5.874;2022-07-30T00:30:46;19.80;63.93
66835;HTU21D;53743;51.100;5.874;2022-07-30T00:31:47;19.76;63.73
66835;HTU21D;53743;51.100;5.874;2022-07-30T00:32:48;19.75;63.91
66835;HTU21D;53743;51.100;5.874;2022-07-30T00:33:49;19.75;64.29
66835;HTU21D;53743;51.100;5.874;2022-07-30T00:34:49;19.71;64.15
66835;HTU21D;53743;51.100;5.874;2022-07-30T00:35:50;19.69;64.12
66835;HTU21D;53743;51.100;5.874;2022-07-30T00:36:51;19.74;64.88
66835;HTU21D;53743;51.100;5.874;2022-07-30T00:37:52;19.71;64.41
66835;HTU21D;53743;51.100;5.874;2022-07-30T00:38:52;19.69;64.81
66835;HTU21D;53743;51.100;5.874;2022-07-30T00:39:53;19.67;64.76
66835;HTU21D;53743;51.100;5.874;2022-07-30T00:40:53;19.68;65.34
66835;HTU21D;53743;51.100;5.874;2022-07-30T00:41:57;19.67;65.14
66835;HTU21D;53743;51.100;5.874;2022-07-30T00:43:02;19.66;65.71
66835;HTU21D;53743;51.100;5.874;2022-07-30T00:44:03;19.67;66.30
66835;HTU21D;53743;51.100;5.874;2022-07-30T00:45:05;19.60;66.13
66835;HTU21D;53743;51.100;5.874;2022-07-30T00:46:07;19.56;66.06
66835;HTU21D;53743;51.100;5.874;2022-07-30T00:47:08;19.53;66.43
66835;HTU21D;53743;51.100;5.874;2022-07-30T00:48:13;19.53;66.54
66835;HTU21D;53743;51.100;5.874;2022-07-30T00:49:14;19.50;66.64
66835;HTU21D;53743;51.100;5.874;2022-07-30T00:50:15;19.47;66.75
66835;HTU21D;53743;51.100;5.874;2022-07-30T00:51:16;19.45;67.04
66835;HTU21D;53743;51.100;5.874;2022-07-30T00:52:17;19.46;67.42
66835;HTU21D;53743;51.100;5.874;2022-07-30T00:53:17;19.45;66.94
66835;HTU21D;53743;51.100;5.874;2022-07-30T00:54:19;19.45;67.14
66835;HTU21D;53743;51.100;5.874;2022-07-30T00:55:20;19.46;67.45
66835;HTU21D;53743;51.100;5.874;2022-07-30T00:56:21;19.46;67.46
66835;HTU21D;53743;51.100;5.874;2022-07-30T00:57:22;19.42;68.27
66835;HTU21D;53743;51.100;5.874;2022-07-30T00:58:23;19.38;69.16
66835;HTU21D;53743;51.100;5.874;2022-07-30T00:59:24;19.31;68.23
66835;HTU21D;53743;51.100;5.874;2022-07-30T01:00:27;19.36;68.39
66835;HTU21D;53743;51.100;5.874;2022-07-30T01:01:31;19.36;68.49
66835;HTU21D;53743;51.100;5.874;2022-07-30T01:02:32;19.31;68.52
66835;HTU21D;53743;51.100;5.874;2022-07-30T01:03:33;19.29;68.55
66835;HTU21D;53743;51.100;5.874;2022-07-30T01:04:34;19.28;68.71
66835;HTU21D;53743;51.100;5.874;2022-07-30T01:05:34;19.31;69.04
66835;HTU21D;53743;51.100;5.874;2022-07-30T01:06:38;19.29;68.95
66835;HTU21D;53743;51.100;5.874;2022-07-30T01:07:40;19.23;69.26
66835;HTU21D;53743;51.100;5.874;2022-07-30T01:08:41;19.23;69.46
66835;HTU21D;53743;51.100;5.874;2022-07-30T01:09:42;19.21;69.54
66835;HTU21D;53743;51.100;5.874;2022-07-30T01:10:43;19.23;69.87
66835;HTU21D;53743;51.100;5.874;2022-07-30T01:11:44;19.18;70.31
66835;HTU21D;53743;51.100;5.874;2022-07-30T01:12:44;19.18;69.81
66835;HTU21D;53743;51.100;5.874;2022-07-30T01:13:46;19.15;69.98
66835;HTU21D;53743;51.100;5.874;2022-07-30T01:14:47;19.16;70.13
66835;HTU21D;53743;51.100;5.874;2022-07-30T01:15:49;19.14;70.55
66835;HTU21D;53743;51.100;5.874;2022-07-30T01:16:50;19.15;70.22
66835;HTU21D;53743;51.100;5.874;2022-07-30T01:17:54;19.17;70.65
66835;HTU21D;53743;51.100;5.874;2022-07-30T01:18:58;19.13;70.55
66835;HTU21D;53743;51.100;5.874;2022-07-30T01:20:35;19.11;70.81
66835;HTU21D;53743;51.100;5.874;2022-07-30T01:21:59;19.10;72.19
66835;HTU21D;53743;51.100;5.874;2022-07-30T01:23:24;19.02;71.93
66835;HTU21D;53743;51.100;5.874;2022-07-30T01:24:39;19.02;71.32
66835;HTU21D;53743;51.100;5.874;2022-07-30T01:26:04;19.06;71.30
66835;HTU21D;53743;51.100;5.874;2022-07-30T01:27:10;19.06;71.36
66835;HTU21D;53743;51.100;5.874;2022-07-30T01:28:18;18.99;71.33
66835;HTU21D;53743;51.100;5.874;2022-07-30T01:29:24;18.98;71.51
66835;HTU21D;53743;51.100;5.874;2022-07-30T01:30:30;18.96;71.48
66835;HTU21D;53743;51.100;5.874;2022-07-30T01:31:34;18.95;71.58
66835;HTU21D;53743;51.100;5.874;2022-07-30T01:32:40;18.94;71.61
66835;HTU21D;53743;51.100;5.874;2022-07-30T01:33:47;18.93;71.61
66835;HTU21D;53743;51.100;5.874;2022-07-30T01:34:51;18.95;71.67
66835;HTU21D;53743;51.100;5.874;2022-07-30T01:35:57;18.92;71.75
66835;HTU21D;53743;51.100;5.874;2022-07-30T01:37:02;18.89;71.96
66835;HTU21D;53743;51.100;5.874;2022-07-30T01:38:06;18.88;71.84
66835;HTU21D;53743;51.100;5.874;2022-07-30T01:39:09;18.86;71.86
66835;HTU21D;53743;51.100;5.874;2022-07-30T01:40:11;18.88;72.11
66835;HTU21D;53743;51.100;5.874;2022-07-30T01:41:16;18.86;71.94
66835;HTU21D;53743;51.100;5.874;2022-07-30T01:42:20;18.83;72.13
66835;HTU21D;53743;51.100;5.874;2022-07-30T01:43:27;18.85;72.38
66835;HTU21D;53743;51.100;5.874;2022-07-30T01:44:29;18.83;72.23
66835;HTU21D;53743;51.100;5.874;2022-07-30T01:45:31;18.80;72.38
66835;HTU21D;53743;51.100;5.874;2022-07-30T01:46:34;18.76;72.59
66835;HTU21D;53743;51.100;5.874;2022-07-30T01:47:38;18.73;72.67
66835;HTU21D;53743;51.100;5.874;2022-07-30T01:48:42;18.71;72.58
66835;HTU21D;53743;51.100;5.874;2022-07-30T01:49:48;18.71;72.64
66835;HTU21D;53743;51.100;5.874;2022-07-30T01:50:54;18.68;72.70
66835;HTU21D;53743;51.100;5.874;2022-07-30T01:51:59;18.68;72.78
66835;HTU21D;53743;51.100;5.874;2022-07-30T01:53:04;18.66;72.80
66835;HTU21D;53743;51.100;5.874;2022-07-30T01:54:09;18.65;73.28
66835;HTU21D;53743;51.100;5.874;2022-07-30T01:55:16;18.63;73.09
66835;HTU21D;53743;51.100;5.874;2022-07-30T01:56:23;18.61;73.13
66835;HTU21D;53743;51.100;5.874;2022-07-30T01:57:26;18.58;73.04
66835;HTU21D;53743;51.100;5.874;2022-07-30T01:58:33;18.59;73.14
66835;HTU21D;53743;51.100;5.874;2022-07-30T01:59:49;18.58;73.19
66835;HTU21D;53743;51.100;5.874;2022-07-30T02:00:55;18.58;73.41
66835;HTU21D;53743;51.100;5.874;2022-07-30T02:01:58;18.54;73.17
66835;HTU21D;53743;51.100;5.874;2022-07-30T02:02:59;18.53;73.12
66835;HTU21D;53743;51.100;5.874;2022-07-30T02:04:02;18.51;73.56
66835;HTU21D;53743;51.100;5.874;2022-07-30T02:05:04;18.48;73.34
66835;HTU21D;53743;51.100;5.874;2022-07-30T02:06:15;18.47;73.41
66835;HTU21D;53743;51.100;5.874;2022-07-30T02:07:29;18.48;73.53
66835;HTU21D;53743;51.100;5.874;2022-07-30T02:08:44;18.46;73.36
66835;HTU21D;53743;51.100;5.874;2022-07-30T02:10:01;18.43;73.58
66835;HTU21D;53743;51.100;5.874;2022-07-30T02:11:18;18.41;73.64
66835;HTU21D;53743;51.100;5.874;2022-07-30T02:12:49;18.38;73.74
66835;HTU21D;53743;51.100;5.874;2022-07-30T02:13:56;18.38;73.87
66835;HTU21D;53743;51.100;5.874;2022-07-30T02:15:18;18.37;73.80
66835;HTU21D;53743;51.100;5.874;2022-07-30T02:16:35;18.38;73.93
66835;HTU21D;53743;51.100;5.874;2022-07-30T02:17:45;18.37;74.32
66835;HTU21D;53743;51.100;5.874;2022-07-30T02:19:02;18.30;74.15
66835;HTU21D;53743;51.100;5.874;2022-07-30T02:20:11;18.30;74.37
66835;HTU21D;53743;51.100;5.874;2022-07-30T02:21:17;18.28;74.35
66835;HTU21D;53743;51.100;5.874;2022-07-30T02:22:22;18.27;74.50
66835;HTU21D;53743;51.100;5.874;2022-07-30T02:23:28;18.26;74.59
66835;HTU21D;53743;51.100;5.874;2022-07-30T02:24:36;18.27;74.80
66835;HTU21D;53743;51.100;5.874;2022-07-30T02:25:43;18.25;74.76
66835;HTU21D;53743;51.100;5.874;2022-07-30T02:26:54;18.24;74.93
66835;HTU21D;53743;51.100;5.874;2022-07-30T02:28:02;18.24;74.95
66835;HTU21D;53743;51.100;5.874;2022-07-30T02:29:09;18.24;75.00
66835;HTU21D;53743;51.100;5.874;2022-07-30T02:30:11;18.22;75.17
66835;HTU21D;53743;51.100;5.874;2022-07-30T02:31:18;18.19;75.24
66835;HTU21D;53743;51.100;5.874;2022-07-30T02:32:26;18.18;75.70
66835;HTU21D;53743;51.100;5.874;2022-07-30T02:33:37;18.19;75.47
66835;HTU21D;53743;51.100;5.874;2022-07-30T02:34:45;18.18;75.55
66835;HTU21D;53743;51.100;5.874;2022-07-30T02:35:53;18.15;75.63
66835;HTU21D;53743;51.100;5.874;2022-07-30T02:36:58;18.15;75.73
66835;HTU21D;53743;51.100;5.874;2022-07-30T02:38:03;18.13;75.78
66835;HTU21D;53743;51.100;5.874;2022-07-30T02:39:06;18.13;75.87
66835;HTU21D;53743;51.100;5.874;2022-07-30T02:40:12;18.13;75.89
66835;HTU21D;53743;51.100;5.874;2022-07-30T02:41:18;18.12;75.99
66835;HTU21D;53743;51.100;5.874;2022-07-30T02:42:23;18.11;76.14
66835;HTU21D;53743;51.100;5.874;2022-07-30T02:43:28;18.13;76.18
66835;HTU21D;53743;51.100;5.874;2022-07-30T02:44:32;18.13;76.28
66835;HTU21D;53743;51.100;5.874;2022-07-30T02:45:36;18.13;76.38
66835;HTU21D;53743;51.100;5.874;2022-07-30T02:46:39;18.10;76.36
66835;HTU21D;53743;51.100;5.874;2022-07-30T02:48:01;18.04;76.69
66835;HTU21D;53743;51.100;5.874;2022-07-30T02:49:09;18.02;76.86
66835;HTU21D;53743;51.100;5.874;2022-07-30T02:50:15;18.00;76.99
66835;HTU21D;53743;51.100;5.874;2022-07-30T02:51:20;17.97;77.10
66835;HTU21D;53743;51.100;5.874;2022-07-30T02:52:26;17.96;77.31
66835;HTU21D;53743;51.100;5.874;2022-07-30T02:53:30;17.96;77.24
66835;HTU21D;53743;51.100;5.874;2022-07-30T02:54:32;17.93;77.40
66835;HTU21D;53743;51.100;5.874;2022-07-30T02:55:34;17.89;77.53
66835;HTU21D;53743;51.100;5.874;2022-07-30T02:56:40;17.90;77.63
66835;HTU21D;53743;51.100;5.874;2022-07-30T02:57:44;17.89;77.74
66835;HTU21D;53743;51.100;5.874;2022-07-30T02:58:50;17.87;77.79
66835;HTU21D;53743;51.100;5.874;2022-07-30T02:59:54;17.83;77.86
66835;HTU21D;53743;51.100;5.874;2022-07-30T03:00:59;17.82;78.27
66835;HTU21D;53743;51.100;5.874;2022-07-30T03:02:06;17.82;78.30
66835;HTU21D;53743;51.100;5.874;2022-07-30T03:03:09;17.81;78.30
66835;HTU21D;53743;51.100;5.874;2022-07-30T03:04:14;17.81;78.27
66835;HTU21D;53743;51.100;5.874;2022-07-30T03:05:19;17.81;78.47
66835;HTU21D;53743;51.100;5.874;2022-07-30T03:06:22;17.82;78.43
66835;HTU21D;53743;51.100;5.874;2022-07-30T03:07:26;17.83;78.43
66835;HTU21D;53743;51.100;5.874;2022-07-30T03:08:30;17.83;78.50
66835;HTU21D;53743;51.100;5.874;2022-07-30T03:09:32;17.88;78.50
66835;HTU21D;53743;51.100;5.874;2022-07-30T03:10:35;17.89;78.53
66835;HTU21D;53743;51.100;5.874;2022-07-30T03:11:39;17.88;78.61
66835;HTU21D;53743;51.100;5.874;2022-07-30T03:12:44;17.88;78.66
66835;HTU21D;53743;51.100;5.874;2022-07-30T03:13:46;17.90;78.57
66835;HTU21D;53743;51.100;5.874;2022-07-30T03:14:48;17.93;78.58
66835;HTU21D;53743;51.100;5.874;2022-07-30T03:15:51;17.94;78.56
66835;HTU21D;53743;51.100;5.874;2022-07-30T03:16:58;17.95;78.47
66835;HTU21D;53743;51.100;5.874;2022-07-30T03:18:04;17.95;78.58
66835;HTU21D;53743;51.100;5.874;2022-07-30T03:19:09;17.96;78.35
66835;HTU21D;53743;51.100;5.874;2022-07-30T03:20:16;17.96;78.51
66835;HTU21D;53743;51.100;5.874;2022-07-30T03:21:24;17.97;78.54
66835;HTU21D;53743;51.100;5.874;2022-07-30T03:22:28;17.99;78.63
66835;HTU21D;53743;51.100;5.874;2022-07-30T03:23:36;17.97;78.37
66835;HTU21D;53743;51.100;5.874;2022-07-30T03:24:42;17.94;78.50
66835;HTU21D;53743;51.100;5.874;2022-07-30T03:25:54;17.95;78.66
66835;HTU21D;53743;51.100;5.874;2022-07-30T03:26:59;17.92;78.66
66835;HTU21D;53743;51.100;5.874;2022-07-30T03:28:04;17.92;78.63
66835;HTU21D;53743;51.100;5.874;2022-07-30T03:29:07;17.91;78.73
66835;HTU21D;53743;51.100;5.874;2022-07-30T03:30:12;17.92;78.69
66835;HTU21D;53743;51.100;5.874;2022-07-30T03:31:15;17.91;78.66
66835;HTU21D;53743;51.100;5.874;2022-07-30T03:32:17;17.88;78.63
66835;HTU21D;53743;51.100;5.874;2022-07-30T03:33:19;17.88;78.73
66835;HTU21D;53743;51.100;5.874;2022-07-30T03:34:21;17.85;78.88
66835;HTU21D;53743;51.100;5.874;2022-07-30T03:35:23;17.85;78.85
66835;HTU21D;53743;51.100;5.874;2022-07-30T03:36:27;17.83;78.88
66835;HTU21D;53743;51.100;5.874;2022-07-30T03:37:29;17.81;78.93
66835;HTU21D;53743;51.100;5.874;2022-07-30T03:38:31;17.80;78.98
66835;HTU21D;53743;51.100;5.874;2022-07-30T03:39:33;17.79;78.99
66835;HTU21D;53743;51.100;5.874;2022-07-30T03:40:35;17.76;79.12
66835;HTU21D;53743;51.100;5.874;2022-07-30T03:41:37;17.74;79.16
66835;HTU21D;53743;51.100;5.874;2022-07-30T03:42:43;17.75;79.23
66835;HTU21D;53743;51.100;5.874;2022-07-30T03:43:46;17.73;79.27
66835;HTU21D;53743;51.100;5.874;2022-07-30T03:44:51;17.72;79.40
66835;HTU21D;53743;51.100;5.874;2022-07-30T03:45:56;17.69;79.40
66835;HTU21D;53743;51.100;5.874;2022-07-30T03:47:01;17.68;79.49
66835;HTU21D;53743;51.100;5.874;2022-07-30T03:48:08;17.65;79.74
66835;HTU21D;53743;51.100;5.874;2022-07-30T03:49:15;17.62;79.74
66835;HTU21D;53743;51.100;5.874;2022-07-30T03:50:20;17.61;79.94
66835;HTU21D;53743;51.100;5.874;2022-07-30T03:51:22;17.60;79.98
66835;HTU21D;53743;51.100;5.874;2022-07-30T03:52:25;17.58;80.01
66835;HTU21D;53743;51.100;5.874;2022-07-30T03:53:28;17.56;80.14
66835;HTU21D;53743;51.100;5.874;2022-07-30T03:54:59;17.55;80.22
66835;HTU21D;53743;51.100;5.874;2022-07-30T03:56:19;17.56;80.24
66835;HTU21D;53743;51.100;5.874;2022-07-30T03:57:32;17.55;80.31
66835;HTU21D;53743;51.100;5.874;2022-07-30T03:58:36;17.56;80.52
66835;HTU21D;53743;51.100;5.874;2022-07-30T03:59:39;17.56;80.39
66835;HTU21D;53743;51.100;5.874;2022-07-30T04:00:40;17.59;80.56
66835;HTU21D;53743;51.100;5.874;2022-07-30T04:01:41;17.59;80.40
66835;HTU21D;53743;51.100;5.874;2022-07-30T04:02:55;17.60;80.54
66835;HTU21D;53743;51.100;5.874;2022-07-30T04:04:13;17.62;80.62
66835;HTU21D;53743;51.100;5.874;2022-07-30T04:05:15;17.62;80.52
66835;HTU21D;53743;51.100;5.874;2022-07-30T04:06:17;17.63;80.31
66835;HTU21D;53743;51.100;5.874;2022-07-30T04:07:18;17.64;80.23
66835;HTU21D;53743;51.100;5.874;2022-07-30T04:08:19;17.62;80.28
66835;HTU21D;53743;51.100;5.874;2022-07-30T04:09:20;17.62;80.37
66835;HTU21D;53743;51.100;5.874;2022-07-30T04:10:22;17.60;80.27
66835;HTU21D;53743;51.100;5.874;2022-07-30T04:11:31;17.59;80.34
66835;HTU21D;53743;51.100;5.874;2022-07-30T04:12:37;17.55;80.33
66835;HTU21D;53743;51.100;5.874;2022-07-30T04:13:38;17.54;80.45
66835;HTU21D;53743;51.100;5.874;2022-07-30T04:14:41;17.53;80.53
66835;HTU21D;53743;51.100;5.874;2022-07-30T04:17:16;17.48;80.63
66835;HTU21D;53743;51.100;5.874;2022-07-30T04:18:23;17.45;80.91
66835;HTU21D;53743;51.100;5.874;2022-07-30T04:19:34;17.41;81.27
66835;HTU21D;53743;51.100;5.874;2022-07-30T04:20:42;17.39;81.27
66835;HTU21D;53743;51.100;5.874;2022-07-30T04:21:46;17.37;81.44
66835;HTU21D;53743;51.100;5.874;2022-07-30T04:22:51;17.36;81.91
66835;HTU21D;53743;51.100;5.874;2022-07-30T04:23:54;17.34;81.70
66835;HTU21D;53743;51.100;5.874;2022-07-30T04:24:59;17.32;81.93
66835;HTU21D;53743;51.100;5.874;2022-07-30T04:26:02;17.31;82.16
66835;HTU21D;53743;51.100;5.874;2022-07-30T04:27:03;17.32;82.09
66835;HTU21D;53743;51.100;5.874;2022-07-30T04:28:06;17.34;82.09
66835;HTU21D;53743;51.100;5.874;2022-07-30T04:29:10;17.35;82.14
66835;HTU21D;53743;51.100;5.874;2022-07-30T04:30:12;17.37;82.18
66835;HTU21D;53743;51.100;5.874;2022-07-30T04:31:14;17.40;82.39
66835;HTU21D;53743;51.100;5.874;2022-07-30T04:32:17;17.44;82.29
66835;HTU21D;53743;51.100;5.874;2022-07-30T04:33:29;17.46;82.52
66835;HTU21D;53743;51.100;5.874;2022-07-30T04:34:46;17.50;82.41
66835;HTU21D;53743;51.100;5.874;2022-07-30T04:35:49;17.56;82.26
66835;HTU21D;53743;51.100;5.874;2022-07-30T04:36:51;17.60;82.21
66835;HTU21D;53743;51.100;5.874;2022-07-30T04:37:52;17.63;82.14
66835;HTU21D;53743;51.100;5.874;2022-07-30T04:38:53;17.64;82.21
66835;HTU21D;53743;51.100;5.874;2022-07-30T04:39:55;17.67;82.23
66835;HTU21D;53743;51.100;5.874;2022-07-30T04:40:59;17.70;82.20
66835;HTU21D;53743;51.100;5.874;2022-07-30T04:42:03;17.73;82.25
66835;HTU21D;53743;51.100;5.874;2022-07-30T04:43:09;17.75;82.62
66835;HTU21D;53743;51.100;5.874;2022-07-30T04:44:11;17.78;82.29
66835;HTU21D;53743;51.100;5.874;2022-07-30T04:45:21;17.80;82.94
66835;HTU21D;53743;51.100;5.874;2022-07-30T04:46:24;17.80;82.54
66835;HTU21D;53743;51.100;5.874;2022-07-30T04:47:25;17.81;82.48
66835;HTU21D;53743;51.100;5.874;2022-07-30T04:48:44;17.84;82.51
66835;HTU21D;53743;51.100;5.874;2022-07-30T04:49:47;17.83;82.67
66835;HTU21D;53743;51.100;5.874;2022-07-30T04:50:54;17.83;82.49
66835;HTU21D;53743;51.100;5.874;2022-07-30T04:52:00;17.87;82.78
66835;HTU21D;53743;51.100;5.874;2022-07-30T04:53:03;17.89;82.60
66835;HTU21D;53743;51.100;5.874;2022-07-30T04:54:10;17.91;82.71
66835;HTU21D;53743;51.100;5.874;2022-07-30T04:55:14;17.93;82.62
66835;HTU21D;53743;51.100;5.874;2022-07-30T04:56:20;17.96;82.65
66835;HTU21D;53743;51.100;5.874;2022-07-30T04:57:24;18.02;82.74
66835;HTU21D;53743;51.100;5.874;2022-07-30T04:58:29;18.06;82.55
66835;HTU21D;53743;51.100;5.874;2022-07-30T04:59:33;18.08;82.49
66835;HTU21D;53743;51.100;5.874;2022-07-30T05:00:38;18.13;82.48
66835;HTU21D;53743;51.100;5.874;2022-07-30T05:01:46;18.19;82.21
66835;HTU21D;53743;51.100;5.874;2022-07-30T05:02:51;18.22;82.17
66835;HTU21D;53743;51.100;5.874;2022-07-30T05:03:56;18.25;82.09
66835;HTU21D;53743;51.100;5.874;2022-07-30T05:05:00;18.26;81.96
66835;HTU21D;53743;51.100;5.874;2022-07-30T05:06:04;18.29;81.94
66835;HTU21D;53743;51.100;5.874;2022-07-30T05:07:11;18.34;81.94
66835;HTU21D;53743;51.100;5.874;2022-07-30T05:08:17;18.39;81.81
66835;HTU21D;53743;51.100;5.874;2022-07-30T05:09:20;18.43;81.67
66835;HTU21D;53743;51.100;5.874;2022-07-30T05:10:21;18.47;81.72
66835;HTU21D;53743;51.100;5.874;2022-07-30T05:11:22;18.52;81.69
66835;HTU21D;53743;51.100;5.874;2022-07-30T05:12:35;18.54;81.49
66835;HTU21D;53743;51.100;5.874;2022-07-30T05:13:42;18.63;81.39
66835;HTU21D;53743;51.100;5.874;2022-07-30T05:14:46;18.69;81.22
66835;HTU21D;53743;51.100;5.874;2022-07-30T05:15:46;18.77;81.09
66835;HTU21D;53743;51.100;5.874;2022-07-30T05:16:51;18.86;80.91
66835;HTU21D;53743;51.100;5.874;2022-07-30T05:17:55;18.92;80.75
66835;HTU21D;53743;51.100;5.874;2022-07-30T05:18:57;18.98;80.69
66835;HTU21D;53743;51.100;5.874;2022-07-30T05:19:58;19.03;80.52
66835;HTU21D;53743;51.100;5.874;2022-07-30T05:21:00;19.08;80.43
66835;HTU21D;53743;51.100;5.874;2022-07-30T05:22:08;19.14;80.31
66835;HTU21D;53743;51.100;5.874;2022-07-30T05:23:10;19.16;80.01
66835;HTU21D;53743;51.100;5.874;2022-07-30T05:24:14;19.21;80.02
66835;HTU21D;53743;51.100;5.874;2022-07-30T05:25:22;19.25;80.03
66835;HTU21D;53743;51.100;5.874;2022-07-30T05:26:24;19.28;79.89
66835;HTU21D;53743;51.100;5.874;2022-07-30T05:27:26;19.30;80.02
66835;HTU21D;53743;51.100;5.874;2022-07-30T05:28:27;19.36;79.88
66835;HTU21D;53743;51.100;5.874;2022-07-30T05:29:28;19.40;79.79
66835;HTU21D;53743;51.100;5.874;2022-07-30T05:30:33;19.42;79.44
66835;HTU21D;53743;51.100;5.874;2022-07-30T05:31:34;19.40;79.76
66835;HTU21D;53743;51.100;5.874;2022-07-30T05:32:36;19.39;79.45
66835;HTU21D;53743;51.100;5.874;2022-07-30T05:33:37;19.36;79.57
66835;HTU21D;53743;51.100;5.874;2022-07-30T05:34:37;19.39;79.62
66835;HTU21D;53743;51.100;5.874;2022-07-30T05:35:40;19.43;79.49
66835;HTU21D;53743;51.100;5.874;2022-07-30T05:36:40;19.44;79.30
66835;HTU21D;53743;51.100;5.874;2022-07-30T05:37:45;19.44;79.40
66835;HTU21D;53743;51.100;5.874;2022-07-30T05:38:47;19.47;79.27
66835;HTU21D;53743;51.100;5.874;2022-07-30T05:40:20;19.55;79.06
66835;HTU21D;53743;51.100;5.874;2022-07-30T05:41:44;19.61;78.85
66835;HTU21D;53743;51.100;5.874;2022-07-30T05:42:53;19.68;78.65
66835;HTU21D;53743;51.100;5.874;2022-07-30T05:43:54;19.77;78.50
66835;HTU21D;53743;51.100;5.874;2022-07-30T05:44:56;19.88;78.21
66835;HTU21D;53743;51.100;5.874;2022-07-30T05:45:56;19.97;78.08
66835;HTU21D;53743;51.100;5.874;2022-07-30T05:46:57;20.04;77.55
66835;HTU21D;53743;51.100;5.874;2022-07-30T05:47:58;20.11;77.24
66835;HTU21D;53743;51.100;5.874;2022-07-30T05:48:58;20.15;77.01
66835;HTU21D;53743;51.100;5.874;2022-07-30T05:49:59;20.20;76.74
66835;HTU21D;53743;51.100;5.874;2022-07-30T05:51:01;20.25;76.47
66835;HTU21D;53743;51.100;5.874;2022-07-30T05:52:02;20.29;76.22
66835;HTU21D;53743;51.100;5.874;2022-07-30T05:53:03;20.32;76.15
66835;HTU21D;53743;51.100;5.874;2022-07-30T05:54:22;20.39;76.01
66835;HTU21D;53743;51.100;5.874;2022-07-30T05:55:43;20.46;75.57
66835;HTU21D;53743;51.100;5.874;2022-07-30T05:56:52;20.49;75.25
66835;HTU21D;53743;51.100;5.874;2022-07-30T05:58:11;20.46;75.25
66835;HTU21D;53743;51.100;5.874;2022-07-30T05:59:11;20.47;75.18
66835;HTU21D;53743;51.100;5.874;2022-07-30T06:00:38;20.47;75.37
66835;HTU21D;53743;51.100;5.874;2022-07-30T06:01:39;20.51;75.25
66835;HTU21D;53743;51.100;5.874;2022-07-30T06:02:47;20.59;75.03
66835;HTU21D;53743;51.100;5.874;2022-07-30T06:04:17;20.70;74.82
66835;HTU21D;53743;51.100;5.874;2022-07-30T06:05:21;20.76;74.69
66835;HTU21D;53743;51.100;5.874;2022-07-30T06:06:22;20.83;74.41
66835;HTU21D;53743;51.100;5.874;2022-07-30T06:07:23;20.83;74.48
66835;HTU21D;53743;51.100;5.874;2022-07-30T06:08:26;20.79;74.31
66835;HTU21D;53743;51.100;5.874;2022-07-30T06:09:26;20.77;74.35
66835;HTU21D;53743;51.100;5.874;2022-07-30T06:10:28;20.74;74.43
66835;HTU21D;53743;51.100;5.874;2022-07-30T06:11:29;20.73;74.50
66835;HTU21D;53743;51.100;5.874;2022-07-30T06:12:30;20.72;74.44
66835;HTU21D;53743;51.100;5.874;2022-07-30T06:13:30;20.70;74.70
66835;HTU21D;53743;51.100;5.874;2022-07-30T06:14:31;20.70;74.76
66835;HTU21D;53743;51.100;5.874;2022-07-30T06:15:32;20.71;74.69
66835;HTU21D;53743;51.100;5.874;2022-07-30T06:16:33;20.72;74.57
66835;HTU21D;53743;51.100;5.874;2022-07-30T06:17:40;20.73;74.51
66835;HTU21D;53743;51.100;5.874;2022-07-30T06:18:48;20.77;74.45
66835;HTU21D;53743;51.100;5.874;2022-07-30T06:19:59;20.83;74.25
66835;HTU21D;53743;51.100;5.874;2022-07-30T06:21:01;20.93;74.18
66835;HTU21D;53743;51.100;5.874;2022-07-30T06:22:20;21.20;73.88
66835;HTU21D;53743;51.100;5.874;2022-07-30T06:23:22;21.51;73.12
66835;HTU21D;53743;51.100;5.874;2022-07-30T06:24:52;21.97;71.44
66835;HTU21D;53743;51.100;5.874;2022-07-30T06:25:57;22.37;70.65
66835;HTU21D;53743;51.100;5.874;2022-07-30T06:26:58;22.71;68.29
66835;HTU21D;53743;51.100;5.874;2022-07-30T06:27:59;22.91;67.79
66835;HTU21D;53743;51.100;5.874;2022-07-30T06:29:00;23.08;67.30
66835;HTU21D;53743;51.100;5.874;2022-07-30T06:30:06;23.12;64.81
66835;HTU21D;53743;51.100;5.874;2022-07-30T06:31:09;22.97;66.46
66835;HTU21D;53743;51.100;5.874;2022-07-30T06:32:10;22.81;66.50
66835;HTU21D;53743;51.100;5.874;2022-07-30T06:33:11;22.67;66.81
66835;HTU21D;53743;51.100;5.874;2022-07-30T06:34:12;22.55;67.11
66835;HTU21D;53743;51.100;5.874;2022-07-30T06:35:15;22.39;67.43
66835;HTU21D;53743;51.100;5.874;2022-07-30T06:36:16;22.35;67.68
66835;HTU21D;53743;51.100;5.874;2022-07-30T06:37:27;22.58;68.01
66835;HTU21D;53743;51.100;5.874;2022-07-30T06:38:28;22.93;67.27
66835;HTU21D;53743;51.100;5.874;2022-07-30T06:39:37;23.35;66.32
66835;HTU21D;53743;51.100;5.874;2022-07-30T06:41:01;23.84;64.71
66835;HTU21D;53743;51.100;5.874;2022-07-30T06:42:15;24.55;62.99
66835;HTU21D;53743;51.100;5.874;2022-07-30T06:43:52;25.50;59.94
66835;HTU21D;53743;51.100;5.874;2022-07-30T06:45:12;26.30;57.59
66835;HTU21D;53743;51.100;5.874;2022-07-30T06:46:35;26.99;55.74